createdAt,value
2022-09-15T00:02:12.830Z,0.50
2022-09-15T00:06:20.206Z,0.63
2022-09-15T00:10:28.755Z,0.50
2022-09-15T00:14:35.493Z,0.57
2022-09-15T00:18:43.385Z,1.00
2022-09-15T00:22:50.104Z,0.70
2022-09-15T00:26:57.042Z,0.50
2022-09-15T00:31:07.579Z,0.98
2022-09-15T00:35:14.385Z,1.10
2022-09-15T00:39:21.061Z,1.50
2022-09-15T00:43:52.852Z,1.10
2022-09-15T00:47:59.652Z,1.65
2022-09-15T00:52:15.730Z,1.83
2022-09-15T00:56:24.286Z,1.98
2022-09-15T01:00:30.976Z,2.55
2022-09-15T01:04:37.671Z,1.40
2022-09-15T01:08:51.467Z,1.77
2022-09-15T01:13:11.675Z,1.45
2022-09-15T01:17:40.345Z,2.30
2022-09-15T01:22:24.582Z,1.65
2022-09-15T01:26:39.992Z,2.00
2022-09-15T01:31:11.549Z,1.58
2022-09-15T01:35:56.100Z,1.67
2022-09-15T01:40:04.665Z,1.67
2022-09-15T01:44:18.514Z,2.08
2022-09-15T01:48:28.047Z,2.40
2022-09-15T01:52:35.456Z,2.17
2022-09-15T01:56:42.294Z,1.67
2022-09-15T02:00:55.941Z,2.35
2022-09-15T02:05:11.354Z,1.85
2022-09-15T02:09:28.467Z,1.40
2022-09-15T02:13:39.666Z,1.92
2022-09-15T02:17:54.139Z,1.90
2022-09-15T02:22:10.592Z,2.03
2022-09-15T02:26:23.138Z,2.22
2022-09-15T02:30:32.341Z,2.38
2022-09-15T02:34:44.266Z,2.90
2022-09-15T02:38:55.322Z,4.13
2022-09-15T02:43:03.590Z,3.42
2022-09-15T02:47:10.942Z,2.63
2022-09-15T02:51:18.565Z,3.70
2022-09-15T02:55:29.030Z,3.40
2022-09-15T02:59:54.496Z,2.90
2022-09-15T03:04:03.380Z,2.38
2022-09-15T03:08:10.347Z,2.70
2022-09-15T03:12:17.727Z,2.35
2022-09-15T03:16:25.375Z,2.78
2022-09-15T03:20:32.052Z,2.30
2022-09-15T03:24:38.854Z,3.67
2022-09-15T03:28:45.571Z,2.38
2022-09-15T03:32:52.247Z,2.40
2022-09-15T03:36:58.905Z,1.92
2022-09-15T03:41:08.339Z,2.05
2022-09-15T03:45:15.067Z,2.45
2022-09-15T03:49:21.914Z,2.70
2022-09-15T03:53:30.927Z,4.00
2022-09-15T03:57:37.691Z,2.55
2022-09-15T04:01:45.572Z,3.30
2022-09-15T04:05:53.006Z,3.75
2022-09-15T04:10:00.979Z,3.83
2022-09-15T04:14:07.768Z,2.13
2022-09-15T04:18:14.431Z,2.20
2022-09-15T04:22:21.601Z,2.10
2022-09-15T04:26:31.405Z,2.22
2022-09-15T04:30:38.107Z,2.05
2022-09-15T04:34:44.818Z,2.22
2022-09-15T04:38:52.111Z,2.10
2022-09-15T04:42:58.866Z,2.50
2022-09-15T04:47:05.663Z,2.08
2022-09-15T04:51:15.855Z,1.92
2022-09-15T04:55:23.159Z,2.15
2022-09-15T04:59:29.888Z,2.22
2022-09-15T05:03:37.686Z,1.67
2022-09-15T05:07:44.332Z,2.65
2022-09-15T05:11:50.994Z,1.90
2022-09-15T05:16:04.418Z,1.50
2022-09-15T05:20:11.088Z,1.63
2022-09-15T05:24:17.806Z,1.42
2022-09-15T05:28:24.878Z,1.38
2022-09-15T05:32:31.549Z,1.27
2022-09-15T05:36:38.242Z,1.60
2022-09-15T05:40:45.211Z,1.38
2022-09-15T05:44:51.862Z,1.15
2022-09-15T05:48:59.013Z,1.45
2022-09-15T05:53:07.389Z,1.75
2022-09-15T05:57:14.285Z,1.85
2022-09-15T06:01:27.119Z,1.00
2022-09-15T06:05:34.082Z,0.93
2022-09-15T06:09:40.779Z,1.00
2022-09-15T06:13:47.839Z,0.80
2022-09-15T06:17:54.493Z,0.70
2022-09-15T06:22:01.251Z,0.73
2022-09-15T06:26:11.362Z,0.70
2022-09-15T06:30:18.514Z,1.58
2022-09-15T06:38:49.877Z,0.73
2022-09-15T06:42:57.163Z,1.15
2022-09-15T06:47:05.101Z,1.02
2022-09-15T06:51:12.830Z,1.10
2022-09-15T06:55:19.620Z,0.65
2022-09-15T06:59:26.313Z,0.95
2022-09-15T07:03:33.087Z,0.68
2022-09-15T07:07:39.901Z,1.00
2022-09-15T07:11:46.686Z,1.00
2022-09-15T07:15:55.827Z,0.85
2022-09-15T07:20:03.351Z,0.70
2022-09-15T07:24:10.629Z,0.70
2022-09-15T07:28:17.805Z,0.60
2022-09-15T07:32:24.969Z,0.40
2022-09-15T07:36:32.153Z,0.40
2022-09-15T07:40:38.914Z,0.20
2022-09-15T07:44:45.662Z,0.20
2022-09-15T07:48:56.308Z,0.20
2022-09-15T07:53:03.551Z,0.60
2022-09-15T07:57:10.222Z,0.80
2022-09-15T08:01:18.378Z,0.38
2022-09-15T08:05:28.150Z,0.10
2022-09-15T08:09:34.866Z,0.90
2022-09-15T08:13:41.577Z,0.43
2022-09-15T08:17:48.218Z,0.60
2022-09-15T08:21:54.965Z,0.40
2022-09-15T08:26:02.143Z,0.95
2022-09-15T08:30:09.218Z,0.50
2022-09-15T08:34:17.501Z,0.70
2022-09-15T08:38:24.141Z,1.08
2022-09-15T08:42:31.401Z,0.30
2022-09-15T08:46:47.760Z,0.40
2022-09-15T08:50:58.050Z,0.28
2022-09-15T08:55:13.053Z,0.20
2022-09-15T08:59:21.190Z,0.30
2022-09-15T09:03:49.262Z,0.17
2022-09-15T09:08:11.847Z,0.60
2022-09-15T09:12:46.509Z,0.52
2022-09-15T09:17:15.026Z,0.28
2022-09-15T09:21:30.746Z,0.20
2022-09-15T09:25:38.359Z,0.20
2022-09-15T09:30:02.554Z,0.20
2022-09-15T09:34:21.879Z,0.30
2022-09-15T09:38:34.387Z,0.10
2022-09-15T09:42:42.917Z,0.20
2022-09-15T09:46:49.608Z,0.52
2022-09-15T09:50:56.472Z,0.10
2022-09-15T09:55:16.179Z,0.30
2022-09-15T09:59:35.512Z,0.10
2022-09-15T10:03:43.772Z,0.10
2022-09-15T10:07:50.572Z,0.73
2022-09-15T10:12:00.191Z,0.15
2022-09-15T10:16:07.034Z,0.22
2022-09-15T10:20:28.484Z,0.20
2022-09-15T10:24:41.572Z,0.35
2022-09-15T10:29:12.622Z,0.20
2022-09-15T10:33:28.487Z,0.20
2022-09-15T10:37:45.624Z,0.10
2022-09-15T10:42:14.121Z,0.50
2022-09-15T10:46:27.328Z,0.20
2022-09-15T10:50:54.976Z,0.30
2022-09-15T10:55:06.246Z,0.20
2022-09-15T10:59:38.094Z,0.30
2022-09-15T11:04:02.995Z,0.38
2022-09-15T11:08:35.530Z,0.20
2022-09-15T11:13:07.246Z,0.10
2022-09-15T11:17:16.751Z,0.15
2022-09-15T11:21:37.128Z,0.20
2022-09-15T11:25:55.082Z,0.10
2022-09-15T11:30:03.374Z,0.47
2022-09-15T11:34:45.580Z,0.38
2022-09-15T11:39:21.634Z,0.43
2022-09-15T11:43:41.074Z,0.20
2022-09-15T11:47:52.602Z,0.20
2022-09-15T11:52:10.800Z,0.20
2022-09-15T11:56:33.571Z,0.13
2022-09-15T12:00:52.722Z,0.20
2022-09-15T12:05:05.384Z,0.20
2022-09-15T12:09:14.246Z,0.40
2022-09-15T12:13:24.142Z,0.20
2022-09-15T12:17:41.669Z,0.20
2022-09-15T12:22:01.280Z,0.45
2022-09-15T12:26:18.357Z,0.52
2022-09-15T12:30:39.829Z,0.20
2022-09-15T12:34:58.644Z,0.47
2022-09-15T12:39:19.690Z,0.20
2022-09-15T12:43:31.629Z,0.10
2022-09-15T12:47:49.072Z,0.77
2022-09-15T12:51:57.647Z,0.20
2022-09-15T12:56:07.771Z,0.20
2022-09-15T13:00:20.423Z,0.20
2022-09-15T13:04:51.333Z,1.33
2022-09-15T13:09:05.582Z,0.20
2022-09-15T13:13:22.587Z,0.15
2022-09-15T13:17:30.150Z,0.10
2022-09-15T13:21:39.964Z,0.85
2022-09-15T13:25:48.200Z,0.20
2022-09-15T13:30:08.101Z,0.30
2022-09-15T13:35:09.803Z,0.10
2022-09-15T13:39:49.820Z,0.52
2022-09-15T13:44:21.398Z,0.20
2022-09-15T13:48:37.056Z,0.10
2022-09-15T13:53:14.320Z,0.10
2022-09-15T13:58:54.601Z,0.10
2022-09-15T14:01:47.861Z,0.20
2022-09-15T14:05:56.270Z,0.00
2022-09-15T14:10:03.717Z,0.10
2022-09-15T14:14:39.207Z,0.60
2022-09-15T14:18:46.846Z,0.10
2022-09-15T14:22:54.161Z,0.10
2022-09-15T14:27:08.878Z,0.10
2022-09-15T14:31:15.955Z,0.10
2022-09-15T14:35:31.750Z,0.10
2022-09-15T14:39:40.330Z,0.20
2022-09-15T14:43:47.016Z,0.30
2022-09-15T14:48:02.068Z,0.20
2022-09-15T14:52:24.427Z,0.65
2022-09-15T14:56:35.186Z,0.10
2022-09-15T15:01:00.395Z,0.10
2022-09-15T15:05:17.909Z,0.15
2022-09-15T15:09:33.595Z,0.10
2022-09-15T15:13:43.564Z,0.25
2022-09-15T15:17:54.541Z,0.93
2022-09-15T15:22:28.286Z,0.10
2022-09-15T15:26:39.135Z,0.20
2022-09-15T15:30:46.982Z,0.10
2022-09-15T15:35:01.280Z,0.10
2022-09-15T15:39:20.946Z,1.13
2022-09-15T15:43:28.868Z,1.08
2022-09-15T15:47:36.941Z,5.53
2022-09-15T15:51:44.780Z,4.07
2022-09-15T15:55:52.104Z,0.50
2022-09-15T16:00:00.544Z,0.25
2022-09-15T16:04:07.555Z,0.13
2022-09-15T16:08:28.702Z,0.20
2022-09-15T16:12:35.631Z,0.10
2022-09-15T16:16:42.678Z,0.30
2022-09-15T16:20:49.682Z,0.10
2022-09-15T16:24:56.423Z,0.17
2022-09-15T16:29:03.148Z,0.47
2022-09-15T16:33:17.272Z,0.10
2022-09-15T16:37:23.953Z,0.10
2022-09-15T16:41:30.679Z,0.20
2022-09-15T16:45:40.701Z,0.40
2022-09-15T16:49:47.860Z,0.20
2022-09-15T16:53:54.563Z,0.10
2022-09-15T16:58:01.706Z,0.10
2022-09-15T17:02:13.533Z,0.20
2022-09-15T17:06:22.162Z,0.22
2022-09-15T17:10:29.047Z,0.50
2022-09-15T17:14:35.856Z,0.63
2022-09-15T17:18:42.541Z,0.45
2022-09-15T17:22:50.774Z,1.80
2022-09-15T17:26:57.422Z,0.30
2022-09-15T17:31:07.122Z,0.52
2022-09-15T17:35:25.356Z,0.28
2022-09-15T17:39:34.050Z,0.20
2022-09-15T17:43:40.768Z,0.20
2022-09-15T17:47:48.234Z,0.35
2022-09-15T17:51:54.865Z,0.20
2022-09-15T17:56:01.810Z,0.20
2022-09-15T18:00:10.829Z,0.20
2022-09-15T18:04:17.466Z,1.05
2022-09-15T18:08:24.644Z,0.10
2022-09-15T18:12:31.297Z,0.30
2022-09-15T18:16:38.005Z,0.20
2022-09-15T18:20:45.227Z,0.10
2022-09-15T18:24:51.985Z,0.55
2022-09-15T18:28:58.643Z,0.10
2022-09-15T18:33:05.486Z,0.30
2022-09-15T18:37:12.120Z,0.10
2022-09-15T18:41:19.031Z,0.20
2022-09-15T18:45:25.993Z,0.17
2022-09-15T18:49:32.697Z,0.20
2022-09-15T18:53:39.393Z,0.38
2022-09-15T18:57:47.187Z,0.10
2022-09-15T19:01:54.021Z,0.20
2022-09-15T19:06:07.357Z,0.45
2022-09-15T19:10:17.480Z,0.32
2022-09-15T19:14:24.183Z,0.20
2022-09-15T19:18:31.405Z,0.20
2022-09-15T19:22:38.403Z,0.63
2022-09-15T19:26:47.178Z,0.10
2022-09-15T19:30:53.881Z,0.10
2022-09-15T19:35:00.652Z,0.15
2022-09-15T19:39:07.371Z,0.20
2022-09-15T19:43:14.037Z,0.20
2022-09-15T19:47:20.742Z,0.10
2022-09-15T19:51:27.809Z,0.20
2022-09-15T19:55:34.479Z,0.20
2022-09-15T19:59:41.129Z,0.52
2022-09-15T20:08:11.996Z,0.20
2022-09-15T20:12:18.952Z,0.45
2022-09-15T20:16:25.596Z,0.20
2022-09-15T20:20:32.884Z,0.10
2022-09-15T20:24:40.458Z,0.10
2022-09-15T20:28:47.631Z,0.45
2022-09-15T20:32:54.276Z,0.05
2022-09-15T20:37:00.928Z,0.10
2022-09-15T20:41:09.725Z,0.20
2022-09-15T20:45:16.488Z,0.10
2022-09-15T20:49:23.210Z,0.10
2022-09-15T20:53:30.385Z,0.10
2022-09-15T20:57:37.130Z,0.10
2022-09-15T21:01:43.817Z,0.20
2022-09-15T21:05:59.686Z,1.17
2022-09-15T21:10:07.473Z,0.10
2022-09-15T21:14:14.358Z,0.10
2022-09-15T21:18:21.064Z,0.10
2022-09-15T21:22:27.719Z,0.13
2022-09-15T21:27:00.258Z,0.10
2022-09-15T21:35:15.185Z,0.20
2022-09-15T21:39:21.869Z,0.10
2022-09-15T21:43:37.102Z,0.50
2022-09-15T21:47:43.741Z,0.13
2022-09-15T21:51:50.512Z,0.40
2022-09-15T21:56:01.295Z,0.10
2022-09-15T22:00:08.839Z,0.38
2022-09-15T22:04:15.589Z,0.17
2022-09-15T22:08:22.288Z,0.10
2022-09-15T22:12:28.957Z,0.30
2022-09-15T22:16:38.094Z,0.10
2022-09-15T22:20:44.991Z,0.10
2022-09-15T22:24:51.630Z,0.10
2022-09-15T22:29:02.302Z,0.10
2022-09-15T22:33:08.968Z,0.10
2022-09-15T22:37:15.639Z,0.10
2022-09-15T22:41:25.727Z,0.20
2022-09-15T22:45:32.478Z,0.10
2022-09-15T22:49:39.186Z,0.10
2022-09-15T22:53:45.922Z,0.17
2022-09-15T22:57:52.586Z,0.10
2022-09-15T23:01:59.421Z,0.90
2022-09-15T23:06:07.714Z,0.20
2022-09-15T23:10:14.861Z,0.40
2022-09-15T23:14:21.564Z,0.20
2022-09-15T23:18:29.149Z,0.20
2022-09-15T23:22:35.803Z,0.17
2022-09-15T23:26:42.529Z,0.15
2022-09-15T23:30:54.419Z,0.10
2022-09-15T23:35:01.110Z,0.10
2022-09-15T23:39:07.780Z,0.17
2022-09-15T23:43:15.069Z,0.65
2022-09-15T23:47:21.772Z,0.30
2022-09-15T23:51:28.506Z,0.40
2022-09-15T23:55:35.711Z,0.68
2022-09-15T23:59:42.354Z,0.20
